createdAt,value
2019-01-02T00:01:37.466Z,-1.62
2019-01-02T00:04:33.219Z,-1.64
2019-01-02T00:06:56.658Z,-1.61
2019-01-02T00:09:27.053Z,-1.58
2019-01-02T00:12:08.466Z,-1.52
2019-01-02T00:17:22.164Z,-1.45
2019-01-02T00:19:59.816Z,-1.43
2019-01-02T00:22:30.169Z,-1.53
2019-01-02T00:25:10.892Z,-1.56
2019-01-02T00:27:41.561Z,-1.54
2019-01-02T00:30:11.854Z,-1.40
2019-01-02T00:32:49.485Z,-1.38
2019-01-02T00:35:20.095Z,-1.47
2019-01-02T00:38:01.042Z,-1.53
2019-01-02T00:40:38.784Z,-1.39
2019-01-02T00:43:09.162Z,-1.27
2019-01-02T00:45:39.510Z,-1.26
2019-01-02T00:48:09.836Z,-1.18
2019-01-02T03:05:52.857Z,-0.39
2019-01-02T03:11:58.546Z,-0.56
2019-01-02T03:14:49.966Z,-0.59
2019-01-02T03:23:57.698Z,-0.66
2019-01-02T03:29:40.432Z,-0.90
2019-01-02T03:36:50.784Z,-1.04
2019-01-02T03:37:52.385Z,-0.80
2019-01-02T03:40:54.407Z,-0.77
2019-01-02T03:55:05.027Z,-1.19
2019-01-02T03:57:44.652Z,-1.23
2019-01-02T04:00:47.507Z,-1.23
2019-01-02T04:06:28.430Z,-1.15
2019-01-02T04:09:32.403Z,-1.14
2019-01-02T04:18:15.922Z,-1.22
2019-01-02T04:32:34.217Z,-1.34
2019-01-02T04:35:14.234Z,-1.35
2019-01-02T04:38:03.472Z,-1.43
2019-01-02T04:40:42.592Z,-1.69
2019-01-02T04:43:46.345Z,-1.64
2019-01-02T17:28:21.241Z,-3.68
2019-01-02T17:30:51.807Z,-3.68
2019-01-02T17:33:22.117Z,-3.63
2019-01-02T17:35:53.590Z,-3.66
2019-01-02T17:38:24.408Z,-3.60
2019-01-02T17:40:56.389Z,-3.66
2019-01-02T17:43:27.179Z,-3.63
2019-01-02T17:45:58.009Z,-3.69
2019-01-02T17:48:28.311Z,-3.59
2019-01-02T17:50:58.743Z,-3.60
2019-01-02T17:53:29.068Z,-3.62
2019-01-02T17:55:59.386Z,-3.54
2019-01-02T17:58:30.048Z,-3.55
2019-01-02T18:01:00.352Z,-3.49
2019-01-02T18:03:30.975Z,-3.49
2019-01-02T18:06:01.275Z,-3.44
2019-01-02T18:08:31.847Z,-3.32
2019-01-02T18:11:02.171Z,-3.38
2019-01-02T18:13:32.554Z,-3.38
2019-01-02T18:16:02.943Z,-3.23
2019-01-02T18:18:33.516Z,-3.22
2019-01-02T18:21:04.561Z,-3.26
2019-01-02T18:23:34.900Z,-3.23
2019-01-02T18:26:05.523Z,-3.18
2019-01-02T18:28:35.962Z,-3.28
2019-01-02T18:31:06.307Z,-3.25
2019-01-02T18:33:38.709Z,-3.23
2019-01-02T18:36:08.978Z,-3.27
2019-01-02T18:38:41.048Z,-3.26
2019-01-02T18:41:11.435Z,-3.23
2019-01-02T18:43:41.722Z,-3.23
2019-01-02T18:46:12.081Z,-3.20
2019-01-02T18:48:42.582Z,-3.30
2019-01-02T18:51:13.214Z,-3.27
2019-01-02T18:53:43.498Z,-3.28
2019-01-02T18:56:13.788Z,-3.35
2019-01-02T18:58:44.116Z,-3.42
2019-01-02T19:01:14.878Z,-3.38
2019-01-02T19:03:45.180Z,-3.48
2019-01-02T19:06:15.544Z,-3.52
2019-01-02T19:08:45.902Z,-3.58
2019-01-02T19:11:16.244Z,-3.66
2019-01-02T19:13:46.616Z,-3.72
2019-01-02T19:16:21.561Z,-3.66
2019-01-02T19:18:48.997Z,-3.50
2019-01-02T19:21:19.340Z,-3.61
2019-01-02T19:23:49.968Z,-3.56
2019-01-02T19:26:20.294Z,-3.47
2019-01-02T19:28:51.041Z,-3.48
2019-01-02T19:31:21.366Z,-3.46
2019-01-02T19:33:51.710Z,-3.35
2019-01-02T19:36:22.817Z,-3.44
2019-01-02T19:38:53.112Z,-3.47
2019-01-02T19:41:23.447Z,-3.46
2019-01-02T19:43:53.861Z,-3.50
2019-01-02T19:46:25.728Z,-3.50
2019-01-02T19:48:58.133Z,-3.55
2019-01-02T19:51:28.537Z,-3.57
2019-01-02T19:53:58.888Z,-3.52
2019-01-02T19:56:29.231Z,-3.53
2019-01-02T19:59:12.144Z,-3.56
2019-01-02T20:01:43.703Z,-3.44
2019-01-02T20:04:15.614Z,-3.55
2019-01-02T20:06:46.015Z,-3.50
2019-01-02T20:09:16.571Z,-3.50
2019-01-02T20:11:46.888Z,-3.42
2019-01-02T20:14:17.954Z,-3.31
2019-01-02T20:16:52.645Z,-3.19
2019-01-02T20:19:23.058Z,-3.19
2019-01-02T20:21:53.426Z,-3.25
2019-01-02T20:24:23.728Z,-3.20
2019-01-02T20:26:55.441Z,-3.34
2019-01-02T20:29:26.362Z,-3.23
2019-01-02T20:31:57.086Z,-3.25
2019-01-02T20:34:27.732Z,-3.26
2019-01-02T20:37:02.876Z,-3.17
2019-01-02T20:39:36.074Z,-3.12
2019-01-02T20:42:06.898Z,-3.23
2019-01-02T20:44:37.240Z,-3.33
2019-01-02T20:47:07.581Z,-3.40
2019-01-02T20:49:37.966Z,-3.33
2019-01-02T20:52:08.292Z,-3.39
2019-01-02T20:54:38.691Z,-3.52
2019-01-02T20:57:09.183Z,-3.51
2019-01-02T20:59:39.999Z,-3.34
2019-01-02T21:02:10.447Z,-3.38
2019-01-02T21:04:40.923Z,-3.34
2019-01-02T21:07:11.233Z,-3.33
2019-01-02T21:09:41.613Z,-3.33
2019-01-02T21:12:12.024Z,-3.30
2019-01-02T21:14:42.399Z,-3.05
2019-01-02T21:17:13.172Z,-3.03
2019-01-02T21:19:44.656Z,-2.87
2019-01-02T21:22:15.006Z,-2.78
2019-01-02T21:24:45.373Z,-2.74
2019-01-02T21:27:25.319Z,-2.56
2019-01-02T21:29:55.818Z,-2.55
2019-01-02T21:32:26.192Z,-2.63
2019-01-02T21:34:56.934Z,-2.72
2019-01-02T21:37:27.285Z,-2.76
2019-01-02T21:39:57.579Z,-2.88
2019-01-02T21:42:28.157Z,-3.05
2019-01-02T21:44:58.601Z,-3.12
2019-01-02T21:47:28.926Z,-3.22
2019-01-02T21:49:59.411Z,-3.34
2019-01-02T21:52:38.478Z,-3.69
2019-01-02T21:55:18.085Z,-3.76
2019-01-02T21:57:48.967Z,-3.95
2019-01-02T22:00:21.625Z,-4.11
2019-01-02T22:02:51.999Z,-4.25
2019-01-02T22:05:23.503Z,-4.52
2019-01-02T22:07:53.904Z,-4.62
2019-01-02T22:10:24.247Z,-4.65
2019-01-02T22:12:54.604Z,-4.60
2019-01-02T22:15:25.059Z,-4.62
2019-01-02T22:18:02.543Z,-4.64
2019-01-02T22:20:42.225Z,-4.80
2019-01-02T22:23:20.563Z,-4.79
2019-01-02T22:25:56.918Z,-4.75
2019-01-02T22:28:33.764Z,-4.60
2019-01-02T22:31:04.852Z,-4.67
2019-01-02T22:33:39.536Z,-4.81
2019-01-02T22:36:13.656Z,-4.96
2019-01-02T22:38:51.205Z,-5.19
2019-01-02T22:41:43.346Z,-5.40
2019-01-02T22:44:13.740Z,-5.50
2019-01-02T22:46:44.401Z,-5.55
2019-01-02T22:49:14.759Z,-5.66
2019-01-02T22:51:47.894Z,-5.77
2019-01-02T22:54:18.470Z,-5.92
2019-01-02T22:56:57.703Z,-5.78
2019-01-02T22:59:28.003Z,-5.76
2019-01-02T23:02:09.931Z,-6.01
2019-01-02T23:04:57.873Z,-6.08
2019-01-02T23:07:47.206Z,-6.24
2019-01-02T23:10:47.682Z,-6.39
2019-01-02T23:13:39.868Z,-6.44
2019-01-02T23:16:48.071Z,-6.47
2019-01-02T23:19:32.043Z,-6.38
2019-01-02T23:22:19.884Z,-6.43
2019-01-02T23:25:07.787Z,-6.23
2019-01-02T23:27:55.888Z,-6.24
2019-01-02T23:31:11.443Z,-6.26
2019-01-02T23:33:59.173Z,-6.18
2019-01-02T23:36:47.201Z,-6.10
2019-01-02T23:39:48.488Z,-5.99
2019-01-02T23:42:39.583Z,-5.79
2019-01-02T23:45:27.900Z,-5.64
2019-01-02T23:48:15.497Z,-5.56
2019-01-02T23:51:03.772Z,-5.49
2019-01-02T23:53:52.092Z,-5.39
2019-01-02T23:56:50.692Z,-5.26
2019-01-02T23:59:46.073Z,-5.41
